Time;durP1;ratioP1;P1;durP2;ratioP2;P2;SDS_P1;SDS_P2;PMS_P1;PMS_P2;Temp;Humidity;BMP_temperature;BMP_pressure;BME280_temperature;BME280_humidity;BME280_pressure;Samples;Min_cycle;Max_cycle;Signal;HPM_P1;HPM_P2
2022/10/15 00:00:07;;;;;;;15.32;9.95;;;;;;;;;;4922482;28;20119;-80
2022/10/15 00:02:32;;;;;;;15.95;9.88;;;;;;;;;;4928178;28;20038;-80
2022/10/15 00:04:58;;;;;;;17.20;10.10;;;;;;;;;;4927835;28;20410;-81
2022/10/15 00:07:24;;;;;;;14.65;9.25;;;;;;;;;;4967523;28;20031;-80
2022/10/15 00:09:49;;;;;;;14.77;9.57;;;;;;;;;;4921366;28;20415;-79
2022/10/15 00:12:15;;;;;;;15.02;9.63;;;;;;;;;;4927761;28;20046;-80
2022/10/15 00:14:41;;;;;;;17.33;10.38;;;;;;;;;;4948318;28;20472;-81
2022/10/15 00:17:07;;;;;;;15.55;10.18;;;;;;;;;;4933546;28;20523;-80
2022/10/15 00:19:32;;;;;;;16.83;9.50;;;;;;;;;;4928176;28;20042;-80
2022/10/15 00:21:57;;;;;;;19.15;10.02;;;;;;;;;;4926880;28;20240;-81
2022/10/15 00:24:23;;;;;;;17.73;10.40;;;;;;;;;;4932658;28;20395;-80
2022/10/15 00:26:48;;;;;;;18.38;10.43;;;;;;;;;;4935335;28;20036;-80
2022/10/15 00:29:13;;;;;;;17.80;10.38;;;;;;;;;;4924869;28;20042;-80
2022/10/15 00:31:39;;;;;;;18.25;9.85;;;;;;;;;;4923604;28;20039;-80
2022/10/15 00:34:04;;;;;;;17.80;11.30;;;;;;;;;;4965066;28;20443;-80
2022/10/15 00:36:33;;;;;;;16.50;10.68;;;;;;;;;;4927906;28;20539;-80
2022/10/15 00:38:58;;;;;;;18.55;11.48;;;;;;;;;;4937936;28;20385;-80
2022/10/15 00:41:29;;;;;;;18.48;11.38;;;;;;;;;;4967406;28;20086;-81
2022/10/15 00:43:57;;;;;;;20.40;12.30;;;;;;;;;;4960200;28;20044;-81
2022/10/15 00:46:27;;;;;;;19.73;11.98;;;;;;;;;;4959196;28;20035;-80
2022/10/15 00:49:17;;;;;;;21.45;11.77;;;;;;;;;;4935575;28;20031;-80
2022/10/15 00:51:47;;;;;;;18.00;10.88;;;;;;;;;;4922824;28;20036;-80
2022/10/15 00:54:13;;;;;;;16.55;10.73;;;;;;;;;;4941471;28;20505;-80
2022/10/15 00:56:40;;;;;;;21.60;12.00;;;;;;;;;;4922309;28;20062;-80
2022/10/15 00:59:06;;;;;;;19.85;11.65;;;;;;;;;;4924741;28;20035;-81
2022/10/15 01:01:32;;;;;;;18.52;11.82;;;;;;;;;;4923084;28;20043;-80
2022/10/15 01:03:58;;;;;;;18.60;11.25;;;;;;;;;;4971589;28;20035;-80
2022/10/15 01:06:24;;;;;;;18.45;11.48;;;;;;;;;;4924456;28;20028;-80
2022/10/15 01:08:50;;;;;;;16.25;10.70;;;;;;;;;;4922342;28;20047;-80
2022/10/15 01:11:50;;;;;;;16.63;10.73;;;;;;;;;;4925183;28;20813;-80
2022/10/15 01:14:18;;;;;;;17.73;10.65;;;;;;;;;;4956164;28;20054;-80
2022/10/15 01:17:04;;;;;;;18.52;10.60;;;;;;;;;;4936745;28;20826;-80
2022/10/15 01:20:07;;;;;;;17.52;11.38;;;;;;;;;;4938156;28;20050;-80
2022/10/15 01:22:47;;;;;;;17.77;10.82;;;;;;;;;;4946839;28;20118;-80
2022/10/15 01:25:33;;;;;;;18.52;11.73;;;;;;;;;;4936078;28;20114;-80
2022/10/15 01:28:37;;;;;;;18.60;11.48;;;;;;;;;;4955395;28;20571;-80
2022/10/15 01:31:12;;;;;;;20.67;12.02;;;;;;;;;;4970606;28;20036;-80
2022/10/15 01:33:59;;;;;;;19.48;12.05;;;;;;;;;;4945727;28;20036;-80
2022/10/15 01:36:33;;;;;;;21.77;12.70;;;;;;;;;;4937956;28;20165;-81
2022/10/15 01:39:07;;;;;;;19.05;12.23;;;;;;;;;;4956165;28;20381;-81
2022/10/15 01:41:32;;;;;;;19.40;12.23;;;;;;;;;;4939538;28;20063;-82
2022/10/15 01:44:01;;;;;;;21.48;12.35;;;;;;;;;;4939136;28;20744;-80
2022/10/15 01:46:52;;;;;;;21.85;12.85;;;;;;;;;;4937119;28;20472;-80
2022/10/15 01:49:20;;;;;;;19.52;12.07;;;;;;;;;;4938088;28;20052;-79
2022/10/15 01:51:47;;;;;;;20.42;11.60;;;;;;;;;;4921669;28;20522;-79
2022/10/15 01:54:16;;;;;;;23.23;13.57;;;;;;;;;;4925603;28;20031;-79
2022/10/15 01:56:48;;;;;;;23.50;13.57;;;;;;;;;;4956616;28;20530;-80
2022/10/15 01:59:16;;;;;;;19.40;12.02;;;;;;;;;;4936061;28;20151;-79
2022/10/15 02:01:42;;;;;;;21.15;11.65;;;;;;;;;;4920866;28;20036;-81
2022/10/15 02:04:22;;;;;;;22.08;12.60;;;;;;;;;;4927127;28;20059;-81
2022/10/15 02:07:12;;;;;;;20.00;12.48;;;;;;;;;;4929037;28;20399;-80
2022/10/15 02:10:14;;;;;;;19.58;11.90;;;;;;;;;;4926161;28;20439;-80
2022/10/15 02:13:13;;;;;;;18.77;11.95;;;;;;;;;;4937361;28;20044;-80
2022/10/15 02:15:52;;;;;;;22.25;12.50;;;;;;;;;;4922129;28;20062;-82
2022/10/15 02:18:29;;;;;;;21.02;11.80;;;;;;;;;;4939810;28;20089;-79
2022/10/15 02:20:54;;;;;;;;;;;;;;;;;;4944696;28;20060;-81
2022/10/15 02:23:24;;;;;;;20.63;12.03;;;;;;;;;;4945397;28;20016;-80
2022/10/15 02:25:51;;;;;;;20.15;12.80;;;;;;;;;;4923061;28;20356;-80
2022/10/15 02:28:17;;;;;;;21.80;12.77;;;;;;;;;;4924406;28;20046;-80
2022/10/15 02:30:45;;;;;;;20.73;12.57;;;;;;;;;;4937001;28;20032;-80
2022/10/15 02:33:10;;;;;;;21.67;12.63;;;;;;;;;;4922656;28;20919;-80
2022/10/15 02:35:36;;;;;;;19.45;12.43;;;;;;;;;;4922577;28;20047;-80
2022/10/15 02:38:04;;;;;;;23.15;12.95;;;;;;;;;;4927409;28;20132;-80
2022/10/15 02:40:31;;;;;;;21.80;13.52;;;;;;;;;;4952656;28;20459;-79
2022/10/15 02:42:58;;;;;;;20.17;12.57;;;;;;;;;;4926158;28;20043;-79
2022/10/15 02:45:23;;;;;;;19.80;12.50;;;;;;;;;;4927385;28;20606;-80
2022/10/15 02:47:49;;;;;;;20.98;13.00;;;;;;;;;;4934807;28;20071;-80
2022/10/15 02:50:14;;;;;;;19.90;12.88;;;;;;;;;;4953576;28;20042;-79
2022/10/15 02:52:40;;;;;;;21.75;12.15;;;;;;;;;;4961103;28;20043;-79
2022/10/15 02:55:05;;;;;;;21.45;13.20;;;;;;;;;;4935598;28;20063;-79
2022/10/15 02:57:31;;;;;;;20.23;11.88;;;;;;;;;;4959528;28;20046;-79
2022/10/15 02:59:56;;;;;;;21.67;13.27;;;;;;;;;;4930240;28;20739;-80
2022/10/15 03:02:21;;;;;;;20.15;12.27;;;;;;;;;;4924787;28;20090;-79
2022/10/15 03:04:47;;;;;;;18.42;12.15;;;;;;;;;;4921508;28;20048;-80
2022/10/15 03:07:13;;;;;;;21.23;12.23;;;;;;;;;;4936488;28;20039;-79
2022/10/15 03:09:38;;;;;;;19.38;12.60;;;;;;;;;;4934910;28;20035;-79
2022/10/15 03:12:03;;;;;;;18.90;11.32;;;;;;;;;;4920318;28;20038;-79
2022/10/15 03:14:29;;;;;;;19.20;11.82;;;;;;;;;;4934613;28;20051;-79
2022/10/15 03:16:54;;;;;;;19.30;11.77;;;;;;;;;;4917876;28;20067;-80
2022/10/15 03:19:19;;;;;;;19.42;11.63;;;;;;;;;;4928610;28;20047;-80
2022/10/15 03:21:45;;;;;;;21.38;12.52;;;;;;;;;;4950154;28;20035;-79
2022/10/15 03:24:10;;;;;;;19.27;11.93;;;;;;;;;;4927804;28;20036;-80
2022/10/15 03:26:36;;;;;;;19.63;11.93;;;;;;;;;;4934626;28;20067;-80
2022/10/15 03:29:01;;;;;;;18.02;11.23;;;;;;;;;;4959910;28;20040;-81
2022/10/15 03:31:26;;;;;;;18.95;11.77;;;;;;;;;;4952665;28;20047;-80
2022/10/15 03:33:52;;;;;;;18.70;11.23;;;;;;;;;;4928196;28;20078;-80
2022/10/15 03:36:17;;;;;;;19.52;11.82;;;;;;;;;;4937138;28;20040;-81
2022/10/15 03:38:42;;;;;;;18.35;11.50;;;;;;;;;;4919576;28;20050;-81
2022/10/15 03:41:08;;;;;;;19.55;12.20;;;;;;;;;;4919527;28;20035;-80
2022/10/15 03:43:33;;;;;;;18.58;11.25;;;;;;;;;;4925234;28;20046;-80
2022/10/15 03:46:05;;;;;;;20.73;12.13;;;;;;;;;;4933339;28;20423;-80
2022/10/15 03:48:31;;;;;;;18.95;12.00;;;;;;;;;;4949040;28;20035;-80
2022/10/15 03:50:56;;;;;;;19.48;11.35;;;;;;;;;;4936504;28;20046;-80
2022/10/15 03:53:22;;;;;;;19.80;12.15;;;;;;;;;;4920882;28;20117;-79
2022/10/15 03:55:47;;;;;;;18.17;11.55;;;;;;;;;;4935823;28;20039;-79
2022/10/15 03:58:13;;;;;;;20.38;11.38;;;;;;;;;;4933834;28;20046;-79
2022/10/15 04:00:44;;;;;;;18.38;11.60;;;;;;;;;;4919359;28;20035;-82
2022/10/15 04:03:10;;;;;;;21.10;11.38;;;;;;;;;;4919167;28;20115;-81
2022/10/15 04:05:35;;;;;;;18.38;11.32;;;;;;;;;;4920256;28;20467;-80
2022/10/15 04:08:02;;;;;;;20.20;11.32;;;;;;;;;;4948883;28;20584;-80
2022/10/15 04:10:28;;;;;;;19.67;11.55;;;;;;;;;;4927136;28;20705;-80
2022/10/15 04:12:53;;;;;;;19.08;11.43;;;;;;;;;;4952624;28;20484;-79
2022/10/15 04:15:19;;;;;;;17.48;10.95;;;;;;;;;;4925728;28;20027;-80
2022/10/15 04:17:44;;;;;;;17.45;10.75;;;;;;;;;;4937739;28;20527;-80
2022/10/15 04:20:10;;;;;;;17.67;11.35;;;;;;;;;;4932999;28;20455;-80
2022/10/15 04:22:36;;;;;;;17.65;10.43;;;;;;;;;;4934945;28;20431;-79
2022/10/15 04:25:01;;;;;;;16.50;10.52;;;;;;;;;;4937460;28;20532;-80
2022/10/15 04:27:27;;;;;;;17.88;10.98;;;;;;;;;;4929156;28;20095;-79
2022/10/15 04:29:52;;;;;;;18.33;11.38;;;;;;;;;;4928181;28;20066;-80
2022/10/15 04:32:17;;;;;;;16.48;10.70;;;;;;;;;;4940229;28;20478;-81
2022/10/15 04:34:45;;;;;;;19.45;11.00;;;;;;;;;;4930966;28;20510;-80
2022/10/15 04:37:10;;;;;;;18.45;10.77;;;;;;;;;;4938532;28;20031;-80
2022/10/15 04:39:35;;;;;;;17.65;11.07;;;;;;;;;;4925201;28;20106;-80
2022/10/15 04:42:01;;;;;;;19.67;11.63;;;;;;;;;;4931788;28;20035;-81
2022/10/15 04:44:26;;;;;;;19.00;11.57;;;;;;;;;;4936632;28;20035;-80
2022/10/15 04:46:51;;;;;;;17.15;11.00;;;;;;;;;;4957037;28;20051;-80
2022/10/15 04:49:17;;;;;;;18.30;11.00;;;;;;;;;;4939830;28;20075;-79
2022/10/15 04:51:42;;;;;;;18.85;11.52;;;;;;;;;;4942634;28;20039;-79
2022/10/15 04:54:07;;;;;;;16.73;10.27;;;;;;;;;;4925107;28;20406;-78
2022/10/15 04:56:33;;;;;;;16.02;9.60;;;;;;;;;;4921864;28;20638;-80
2022/10/15 04:58:58;;;;;;;18.08;10.70;;;;;;;;;;4921593;29;20126;-80
2022/10/15 05:01:23;;;;;;;17.35;10.63;;;;;;;;;;4943580;28;20078;-79
2022/10/15 05:03:49;;;;;;;17.25;10.30;;;;;;;;;;4937123;28;20058;-78
2022/10/15 05:06:17;;;;;;;18.63;11.80;;;;;;;;;;4938746;28;20043;-80
2022/10/15 05:08:43;;;;;;;16.92;10.13;;;;;;;;;;4926541;28;20089;-78
2022/10/15 05:11:22;;;;;;;18.05;10.70;;;;;;;;;;4961790;28;20055;-78
2022/10/15 05:13:48;;;;;;;17.23;10.30;;;;;;;;;;4924436;28;20039;-79
2022/10/15 05:16:19;;;;;;;15.23;9.57;;;;;;;;;;4927217;28;20032;-79
2022/10/15 05:18:46;;;;;;;19.13;10.88;;;;;;;;;;4940553;28;20496;-79
2022/10/15 05:21:12;;;;;;;18.27;11.00;;;;;;;;;;4931711;28;20047;-79
2022/10/15 05:23:37;;;;;;;15.98;9.93;;;;;;;;;;4937494;28;20047;-80
2022/10/15 05:26:07;;;;;;;18.13;10.63;;;;;;;;;;4938466;28;20032;-80
2022/10/15 05:28:33;;;;;;;17.27;10.32;;;;;;;;;;4931703;28;20062;-79
2022/10/15 05:31:05;;;;;;;17.80;10.82;;;;;;;;;;4954237;28;20031;-80
2022/10/15 05:33:31;;;;;;;16.05;9.52;;;;;;;;;;4939790;28;20098;-79
2022/10/15 05:35:56;;;;;;;15.75;10.57;;;;;;;;;;4953735;28;20036;-80
2022/10/15 05:38:21;;;;;;;16.65;10.32;;;;;;;;;;4938349;28;20550;-78
2022/10/15 05:40:48;;;;;;;16.02;9.10;;;;;;;;;;4927645;28;20038;-80
2022/10/15 05:43:13;;;;;;;16.75;9.73;;;;;;;;;;4929179;28;20538;-80
2022/10/15 05:45:38;;;;;;;17.05;10.02;;;;;;;;;;4935085;28;20039;-81
2022/10/15 05:48:04;;;;;;;19.50;10.93;;;;;;;;;;4937891;28;20507;-79
2022/10/15 05:50:29;;;;;;;17.25;10.15;;;;;;;;;;4923330;28;20075;-80
2022/10/15 05:52:55;;;;;;;16.10;9.70;;;;;;;;;;4937733;28;20118;-80
2022/10/15 05:55:20;;;;;;;14.32;9.30;;;;;;;;;;4925385;28;20428;-79
2022/10/15 05:57:45;;;;;;;14.15;9.52;;;;;;;;;;4936371;28;20515;-79
2022/10/15 06:00:11;;;;;;;16.08;9.18;;;;;;;;;;4919902;28;20040;-80
2022/10/15 06:02:36;;;;;;;15.23;9.85;;;;;;;;;;4939179;28;20063;-80
2022/10/15 06:05:05;;;;;;;14.27;9.23;;;;;;;;;;4955292;28;20380;-80
2022/10/15 06:07:31;;;;;;;13.85;9.35;;;;;;;;;;4939422;28;20385;-79
2022/10/15 06:09:56;;;;;;;14.48;9.10;;;;;;;;;;4936973;28;20031;-78
2022/10/15 06:12:22;;;;;;;14.05;9.23;;;;;;;;;;4923970;28;20032;-79
2022/10/15 06:14:47;;;;;;;15.32;9.77;;;;;;;;;;4924657;28;20040;-79
2022/10/15 06:17:12;;;;;;;16.17;9.35;;;;;;;;;;4922331;28;20053;-80
2022/10/15 06:19:37;;;;;;;15.77;9.35;;;;;;;;;;4939137;28;20415;-79
2022/10/15 06:22:03;;;;;;;16.20;10.20;;;;;;;;;;4944732;28;20876;-79
2022/10/15 06:24:28;;;;;;;16.27;10.20;;;;;;;;;;4930667;28;20472;-79
2022/10/15 06:26:53;;;;;;;16.00;10.40;;;;;;;;;;4921695;28;20035;-80
2022/10/15 06:29:19;;;;;;;13.02;8.95;;;;;;;;;;4926708;28;20078;-79
2022/10/15 06:31:44;;;;;;;16.70;9.32;;;;;;;;;;4922750;28;20129;-80
2022/10/15 06:34:09;;;;;;;17.83;9.95;;;;;;;;;;4938529;28;20065;-79
2022/10/15 06:36:35;;;;;;;15.25;9.38;;;;;;;;;;4931739;28;20031;-79
2022/10/15 06:39:01;;;;;;;13.65;9.07;;;;;;;;;;4921400;28;20038;-79
2022/10/15 06:41:26;;;;;;;14.38;8.95;;;;;;;;;;4936294;28;20047;-80
2022/10/15 06:43:52;;;;;;;13.90;9.07;;;;;;;;;;4929527;28;20115;-81
2022/10/15 06:46:20;;;;;;;14.63;9.07;;;;;;;;;;4936295;28;20399;-80
2022/10/15 06:48:45;;;;;;;12.68;8.32;;;;;;;;;;4928553;28;20043;-80
2022/10/15 06:51:11;;;;;;;13.70;9.10;;;;;;;;;;4960681;28;20387;-79
2022/10/15 06:53:39;;;;;;;14.43;9.18;;;;;;;;;;4923203;28;20095;-79
2022/10/15 06:56:04;;;;;;;14.23;8.75;;;;;;;;;;4964333;28;20043;-79
2022/10/15 06:58:30;;;;;;;14.18;8.45;;;;;;;;;;4939144;28;20055;-80
2022/10/15 07:01:00;;;;;;;13.02;8.93;;;;;;;;;;4936868;28;20333;-80
2022/10/15 07:03:25;;;;;;;14.15;8.73;;;;;;;;;;4935956;28;20126;-80
2022/10/15 07:05:51;;;;;;;13.25;8.43;;;;;;;;;;4959910;28;20189;-79
2022/10/15 07:08:16;;;;;;;16.05;9.48;;;;;;;;;;4934698;28;20031;-79
2022/10/15 07:10:41;;;;;;;13.80;8.50;;;;;;;;;;4927857;28;20035;-79
2022/10/15 07:13:07;;;;;;;13.85;8.68;;;;;;;;;;4937327;28;20031;-79
2022/10/15 07:15:32;;;;;;;14.00;9.05;;;;;;;;;;4919947;28;20047;-79
2022/10/15 07:18:01;;;;;;;14.70;9.23;;;;;;;;;;4955231;28;20114;-79
2022/10/15 07:20:28;;;;;;;13.02;8.70;;;;;;;;;;4935052;28;20482;-81
2022/10/15 07:22:57;;;;;;;13.63;8.57;;;;;;;;;;4935084;28;20036;-80
2022/10/15 07:25:24;;;;;;;11.88;7.22;;;;;;;;;;4928698;28;20032;-80
2022/10/15 07:27:50;;;;;;;12.60;7.45;;;;;;;;;;4934992;28;20062;-79
2022/10/15 07:30:15;;;;;;;11.30;7.60;;;;;;;;;;4965292;28;20062;-79
2022/10/15 07:32:40;;;;;;;11.07;6.88;;;;;;;;;;4928762;28;20043;-80
2022/10/15 07:35:06;;;;;;;10.60;7.65;;;;;;;;;;4921428;28;20094;-81
2022/10/15 07:37:32;;;;;;;10.90;7.13;;;;;;;;;;4944516;28;20126;-79
2022/10/15 07:39:57;;;;;;;9.18;6.30;;;;;;;;;;4962650;28;20031;-79
2022/10/15 07:42:23;;;;;;;10.20;6.10;;;;;;;;;;4942550;28;20035;-79
2022/10/15 07:44:48;;;;;;;11.65;6.45;;;;;;;;;;4932496;28;20566;-80
2022/10/15 07:47:13;;;;;;;9.70;5.72;;;;;;;;;;4929260;28;20039;-80
2022/10/15 07:49:39;;;;;;;9.35;5.50;;;;;;;;;;4920758;28;20403;-79
2022/10/15 07:52:04;;;;;;;7.70;4.97;;;;;;;;;;4927838;28;20038;-80
2022/10/15 07:54:31;;;;;;;8.15;5.25;;;;;;;;;;4935211;28;20043;-80
2022/10/15 07:56:57;;;;;;;7.88;5.00;;;;;;;;;;4959535;28;20167;-80
2022/10/15 07:59:22;;;;;;;6.90;4.75;;;;;;;;;;4953891;28;20039;-80
2022/10/15 08:01:48;;;;;;;6.90;4.32;;;;;;;;;;4920890;28;20039;-80
2022/10/15 08:04:13;;;;;;;7.38;4.55;;;;;;;;;;4925868;28;20085;-81
2022/10/15 08:06:38;;;;;;;6.80;4.45;;;;;;;;;;4934852;28;20042;-80
2022/10/15 08:09:04;;;;;;;5.95;4.18;;;;;;;;;;4921849;28;20035;-79
2022/10/15 08:11:29;;;;;;;6.30;4.07;;;;;;;;;;4919942;28;20097;-80
2022/10/15 08:13:55;;;;;;;6.32;3.85;;;;;;;;;;4928572;28;20498;-80
2022/10/15 08:16:20;;;;;;;7.07;4.00;;;;;;;;;;4920180;28;20131;-80
2022/10/15 08:18:45;;;;;;;5.88;3.85;;;;;;;;;;4922940;28;20051;-80
2022/10/15 08:21:11;;;;;;;6.90;4.25;;;;;;;;;;4924889;28;20166;-79
2022/10/15 08:23:36;;;;;;;5.93;3.83;;;;;;;;;;4950914;28;20130;-80
2022/10/15 08:26:02;;;;;;;5.82;3.78;;;;;;;;;;4934754;28;20036;-80
2022/10/15 08:28:28;;;;;;;5.80;3.65;;;;;;;;;;4920038;28;20039;-80
2022/10/15 08:30:55;;;;;;;6.15;3.90;;;;;;;;;;4928000;28;20031;-80
2022/10/15 08:33:20;;;;;;;6.43;3.75;;;;;;;;;;4927985;28;20448;-82
2022/10/15 08:35:45;;;;;;;6.50;3.88;;;;;;;;;;4930519;28;20039;-80
2022/10/15 08:38:11;;;;;;;6.13;3.92;;;;;;;;;;4922564;28;20387;-79
2022/10/15 08:40:36;;;;;;;7.32;4.38;;;;;;;;;;4925954;28;20035;-79
2022/10/15 08:43:03;;;;;;;5.85;4.03;;;;;;;;;;4922223;28;20070;-79
2022/10/15 08:45:33;;;;;;;6.63;4.25;;;;;;;;;;4953615;28;20035;-80
2022/10/15 08:48:08;;;;;;;6.55;4.10;;;;;;;;;;4955210;28;20174;-80
2022/10/15 08:50:51;;;;;;;6.40;4.07;;;;;;;;;;4933509;28;20044;-80
2022/10/15 08:53:21;;;;;;;6.38;4.00;;;;;;;;;;4959332;28;20030;-81
2022/10/15 08:55:54;;;;;;;6.03;3.70;;;;;;;;;;4964429;28;20098;-79
2022/10/15 08:58:44;;;;;;;5.40;3.50;;;;;;;;;;4934710;28;20395;-78
2022/10/15 09:01:31;;;;;;;4.97;3.38;;;;;;;;;;4926878;28;20122;-78
2022/10/15 09:04:10;;;;;;;6.00;3.55;;;;;;;;;;4928245;28;20035;-79
2022/10/15 09:06:37;;;;;;;5.05;3.20;;;;;;;;;;4919989;28;20044;-79
2022/10/15 09:09:22;;;;;;;5.00;3.15;;;;;;;;;;4919692;28;20595;-79
2022/10/15 09:12:00;;;;;;;5.38;3.50;;;;;;;;;;4940328;28;20129;-78
2022/10/15 09:14:29;;;;;;;6.35;3.70;;;;;;;;;;4939635;28;20049;-80
2022/10/15 09:16:56;;;;;;;6.18;3.25;;;;;;;;;;4920273;28;20044;-79
2022/10/15 09:19:23;;;;;;;5.18;3.30;;;;;;;;;;4953217;28;20039;-78
2022/10/15 09:21:50;;;;;;;5.90;3.60;;;;;;;;;;4923034;28;20036;-78
2022/10/15 09:24:20;;;;;;;4.85;3.08;;;;;;;;;;4929667;28;20095;-79
2022/10/15 09:26:52;;;;;;;4.72;2.92;;;;;;;;;;4935407;28;20039;-79
2022/10/15 09:29:22;;;;;;;7.50;3.17;;;;;;;;;;4968557;28;20476;-79
2022/10/15 09:32:12;;;;;;;5.05;3.15;;;;;;;;;;4938832;28;20045;-78
2022/10/15 09:34:46;;;;;;;4.55;2.83;;;;;;;;;;4894801;28;20563;-78
2022/10/15 09:37:28;;;;;;;5.32;3.50;;;;;;;;;;4939634;28;20091;-77
2022/10/15 09:40:31;;;;;;;6.90;3.88;;;;;;;;;;4954372;28;20534;-79
2022/10/15 09:42:58;;;;;;;5.68;3.28;;;;;;;;;;4937869;28;20035;-79
2022/10/15 09:45:23;;;;;;;6.57;3.47;;;;;;;;;;4939455;28;20570;-79
2022/10/15 09:47:49;;;;;;;6.43;3.80;;;;;;;;;;4958137;28;20028;-80
2022/10/15 09:50:15;;;;;;;6.82;3.35;;;;;;;;;;4952068;28;20056;-80
2022/10/15 09:52:59;;;;;;;5.20;3.42;;;;;;;;;;4931193;28;20515;-79
2022/10/15 09:55:46;;;;;;;5.43;3.25;;;;;;;;;;4955454;28;20039;-81
2022/10/15 09:58:25;;;;;;;6.25;2.97;;;;;;;;;;4938433;28;20525;-79
2022/10/15 10:00:59;;;;;;;5.22;3.00;;;;;;;;;;4967391;28;20564;-81
2022/10/15 10:03:28;;;;;;;5.10;3.00;;;;;;;;;;4969282;28;20459;-81
2022/10/15 10:06:16;;;;;;;4.38;2.72;;;;;;;;;;4958478;28;20052;-79
2022/10/15 10:08:53;;;;;;;4.63;3.08;;;;;;;;;;4944999;28;20054;-79
2022/10/15 10:11:19;;;;;;;5.85;3.40;;;;;;;;;;4941576;28;20035;-78
2022/10/15 10:13:51;;;;;;;4.32;2.70;;;;;;;;;;4955278;28;20380;-79
2022/10/15 10:16:18;;;;;;;4.78;3.17;;;;;;;;;;4925571;28;20502;-79
2022/10/15 10:18:49;;;;;;;;;;;;;;;;;;4922711;28;20178;-79
2022/10/15 10:21:29;;;;;;;5.30;3.10;;;;;;;;;;4939563;28;19923;-77
2022/10/15 10:23:54;;;;;;;5.28;3.20;;;;;;;;;;4955997;28;20061;-79
2022/10/15 10:26:19;;;;;;;5.65;3.03;;;;;;;;;;4925261;28;20055;-79
2022/10/15 10:28:46;;;;;;;5.30;2.85;;;;;;;;;;4921047;28;20044;-81
2022/10/15 10:31:11;;;;;;;5.38;3.17;;;;;;;;;;4935986;28;20036;-79
2022/10/15 10:33:49;;;;;;;5.05;2.83;;;;;;;;;;4954348;28;20061;-79
2022/10/15 10:36:40;;;;;;;5.07;3.35;;;;;;;;;;4921983;28;20039;-79
2022/10/15 10:39:09;;;;;;;4.75;2.90;;;;;;;;;;4925120;28;20644;-79
2022/10/15 10:41:50;;;;;;;7.50;3.33;;;;;;;;;;4938140;28;20118;-80
2022/10/15 10:44:45;;;;;;;5.07;3.25;;;;;;;;;;4969829;28;20498;-79
2022/10/15 10:47:21;;;;;;;6.03;3.22;;;;;;;;;;4940867;28;20039;-79
2022/10/15 10:49:52;;;;;;;6.03;3.17;;;;;;;;;;4929985;28;20071;-79
2022/10/15 10:52:27;;;;;;;5.72;3.58;;;;;;;;;;4935310;28;20059;-79
2022/10/15 10:55:18;;;;;;;5.82;3.30;;;;;;;;;;4955677;28;20070;-78
2022/10/15 10:58:08;;;;;;;5.75;3.30;;;;;;;;;;4925025;28;20455;-79
2022/10/15 11:00:40;;;;;;;6.60;3.33;;;;;;;;;;4960569;28;20067;-80
2022/10/15 11:03:29;;;;;;;4.90;3.17;;;;;;;;;;4968234;28;20059;-80
2022/10/15 11:06:11;;;;;;;5.13;2.85;;;;;;;;;;4934949;28;20043;-79
2022/10/15 11:09:01;;;;;;;5.07;3.30;;;;;;;;;;4968326;28;20048;-78
2022/10/15 11:12:03;;;;;;;4.22;2.65;;;;;;;;;;4941852;28;20043;-79
2022/10/15 11:14:44;;;;;;;5.68;2.95;;;;;;;;;;4920201;28;20077;-79
2022/10/15 11:17:18;;;;;;;5.55;2.92;;;;;;;;;;4952921;28;20044;-80
2022/10/15 11:19:48;;;;;;;4.68;2.70;;;;;;;;;;4926581;28;20051;-79
2022/10/15 11:22:13;;;;;;;5.53;3.20;;;;;;;;;;4920554;28;20038;-79
2022/10/15 11:25:23;;;;;;;6.28;2.97;;;;;;;;;;4938861;28;20046;-80
2022/10/15 11:27:57;;;;;;;5.88;2.92;;;;;;;;;;4935321;28;20031;-79
2022/10/15 11:31:00;;;;;;;4.88;2.60;;;;;;;;;;4953834;28;20190;-79
2022/10/15 11:33:43;;;;;;;4.38;2.40;;;;;;;;;;4874027;29;20040;-79
2022/10/15 11:36:25;;;;;;;4.95;2.70;;;;;;;;;;4939301;28;20062;-79
2022/10/15 11:39:00;;;;;;;3.72;2.20;;;;;;;;;;4929040;28;20067;-78
2022/10/15 11:41:50;;;;;;;4.68;2.30;;;;;;;;;;4942747;28;20090;-79
2022/10/15 11:44:25;;;;;;;3.10;1.70;;;;;;;;;;4953757;28;20093;-80
2022/10/15 11:47:11;;;;;;;5.07;2.10;;;;;;;;;;4953975;28;20043;-80
2022/10/15 11:49:53;;;;;;;2.78;1.70;;;;;;;;;;4940305;28;20089;-80
2022/10/15 11:52:48;;;;;;;3.05;1.75;;;;;;;;;;4943480;28;20031;-80
2022/10/15 11:55:24;;;;;;;3.72;1.80;;;;;;;;;;4905264;28;20040;-80
2022/10/15 11:57:54;;;;;;;3.45;1.88;;;;;;;;;;4935085;28;20443;-78
2022/10/15 12:00:38;;;;;;;3.10;1.60;;;;;;;;;;4951216;28;20046;-79
2022/10/15 12:03:17;;;;;;;3.58;1.88;;;;;;;;;;4954499;28;20478;-79
2022/10/15 12:05:47;;;;;;;4.32;1.90;;;;;;;;;;4936035;28;20050;-80
2022/10/15 12:08:13;;;;;;;3.58;1.80;;;;;;;;;;4937472;28;20039;-79
2022/10/15 12:10:58;;;;;;;3.42;1.90;;;;;;;;;;4933218;28;20051;-80
2022/10/15 12:13:59;;;;;;;4.88;2.08;;;;;;;;;;4967818;28;20116;-80
2022/10/15 12:16:32;;;;;;;3.55;1.88;;;;;;;;;;4889414;28;20067;-80
2022/10/15 12:19:13;;;;;;;3.42;2.00;;;;;;;;;;4927665;28;20475;-80
2022/10/15 12:22:05;;;;;;;3.30;1.88;;;;;;;;;;4934367;28;20099;-80
2022/10/15 12:24:37;;;;;;;3.67;1.88;;;;;;;;;;4938206;28;20050;-80
2022/10/15 12:27:37;;;;;;;3.97;1.55;;;;;;;;;;4943168;28;20399;-79
2022/10/15 12:30:04;;;;;;;3.60;2.00;;;;;;;;;;4885798;29;20040;-80
2022/10/15 12:32:35;;;;;;;4.22;2.03;;;;;;;;;;4890111;29;20087;-80
2022/10/15 12:35:22;;;;;;;3.15;1.63;;;;;;;;;;4890662;29;20047;-79
2022/10/15 12:37:48;;;;;;;3.20;1.70;;;;;;;;;;4868326;29;20040;-79
2022/10/15 12:40:19;;;;;;;2.97;1.63;;;;;;;;;;4873404;29;20555;-78
2022/10/15 12:42:49;;;;;;;3.63;2.05;;;;;;;;;;4890293;29;20108;-79
2022/10/15 12:45:22;;;;;;;3.10;1.70;;;;;;;;;;4900179;29;20032;-80
2022/10/15 12:48:11;;;;;;;3.22;1.85;;;;;;;;;;4893866;29;20108;-80
2022/10/15 12:50:37;;;;;;;2.70;1.40;;;;;;;;;;4893276;29;20547;-80
2022/10/15 12:53:22;;;;;;;3.10;1.80;;;;;;;;;;4894650;29;20040;-80
2022/10/15 12:56:16;;;;;;;3.08;1.40;;;;;;;;;;4892683;29;20036;-79
2022/10/15 12:58:45;;;;;;;3.42;1.63;;;;;;;;;;4893139;29;20126;-80
2022/10/15 13:01:13;;;;;;;3.10;1.63;;;;;;;;;;4876148;29;20043;-79
2022/10/15 13:03:51;;;;;;;3.08;1.52;;;;;;;;;;4893078;29;20599;-81
2022/10/15 13:06:19;;;;;;;3.60;1.70;;;;;;;;;;4879840;28;20084;-79
2022/10/15 13:08:56;;;;;;;2.45;1.17;;;;;;;;;;4938637;28;20071;-81
2022/10/15 13:11:39;;;;;;;2.50;1.25;;;;;;;;;;4931790;28;20039;-77
2022/10/15 13:14:17;;;;;;;2.90;1.20;;;;;;;;;;4938650;28;20126;-79
2022/10/15 13:16:44;;;;;;;2.75;1.20;;;;;;;;;;4946425;28;20040;-81
2022/10/15 13:19:37;;;;;;;4.18;1.92;;;;;;;;;;4940687;28;20070;-79
2022/10/15 13:22:04;;;;;;;1.88;0.90;;;;;;;;;;4926682;28;20113;-79
2022/10/15 13:24:39;;;;;;;2.97;1.48;;;;;;;;;;4952707;28;20044;-80
2022/10/15 13:27:13;;;;;;;2.75;1.10;;;;;;;;;;4968137;28;20043;-80
2022/10/15 13:29:38;;;;;;;2.38;1.10;;;;;;;;;;4944087;28;20046;-78
2022/10/15 13:32:12;;;;;;;3.15;1.50;;;;;;;;;;4939360;28;20031;-80
2022/10/15 13:34:40;;;;;;;2.88;1.40;;;;;;;;;;4969260;28;20038;-80
2022/10/15 13:37:16;;;;;;;4.20;1.50;;;;;;;;;;4938424;28;20042;-78
2022/10/15 13:39:41;;;;;;;2.25;1.20;;;;;;;;;;4955168;28;20410;-79
2022/10/15 13:42:22;;;;;;;2.97;1.17;;;;;;;;;;4924173;28;20045;-78
2022/10/15 13:45:16;;;;;;;3.95;1.50;;;;;;;;;;4972154;28;20098;-79
2022/10/15 13:47:48;;;;;;;2.45;1.20;;;;;;;;;;4924595;28;20122;-80
2022/10/15 13:50:19;;;;;;;3.10;1.17;;;;;;;;;;4961155;28;20238;-80
2022/10/15 13:53:02;;;;;;;2.17;1.27;;;;;;;;;;4930595;28;20545;-79
2022/10/15 13:55:29;;;;;;;2.67;1.45;;;;;;;;;;4953678;28;20422;-80
2022/10/15 13:58:20;;;;;;;2.97;1.40;;;;;;;;;;4935500;28;20074;-80
2022/10/15 14:01:20;;;;;;;3.25;1.48;;;;;;;;;;4929593;28;20040;-79
2022/10/15 14:03:48;;;;;;;2.90;1.30;;;;;;;;;;4912442;28;20035;-78
2022/10/15 14:06:17;;;;;;;2.40;1.20;;;;;;;;;;4941345;28;20079;-79
2022/10/15 14:08:42;;;;;;;2.70;1.40;;;;;;;;;;4939453;28;20075;-78
2022/10/15 14:11:12;;;;;;;2.70;1.45;;;;;;;;;;4936311;28;20068;-79
2022/10/15 14:14:03;;;;;;;2.75;1.45;;;;;;;;;;4921996;28;20095;-79
2022/10/15 14:16:29;;;;;;;3.00;1.65;;;;;;;;;;4928141;28;20031;-79
2022/10/15 14:19:07;;;;;;;2.92;1.60;;;;;;;;;;4930531;28;20479;-79
2022/10/15 14:21:34;;;;;;;2.75;1.30;;;;;;;;;;4966833;28;20085;-78
2022/10/15 14:24:31;;;;;;;2.90;1.48;;;;;;;;;;4954679;28;20067;-80
2022/10/15 14:27:02;;;;;;;3.08;1.50;;;;;;;;;;4935192;28;20046;-80
2022/10/15 14:29:40;;;;;;;2.65;1.50;;;;;;;;;;4929925;28;20052;-79
2022/10/15 14:32:22;;;;;;;2.75;1.23;;;;;;;;;;4922246;28;20036;-81
2022/10/15 14:34:52;;;;;;;2.60;1.30;;;;;;;;;;4953546;28;20039;-79
2022/10/15 14:37:41;;;;;;;2.05;1.02;;;;;;;;;;4937217;28;20035;-79
2022/10/15 14:40:07;;;;;;;4.45;1.65;;;;;;;;;;4936871;28;20036;-78
2022/10/15 14:42:33;;;;;;;3.90;1.25;;;;;;;;;;4939152;28;20388;-79
2022/10/15 14:45:10;;;;;;;2.58;1.23;;;;;;;;;;4940466;28;20032;-80
2022/10/15 14:47:35;;;;;;;1.95;1.00;;;;;;;;;;4944946;28;20120;-79
2022/10/15 14:50:03;;;;;;;2.95;1.08;;;;;;;;;;4953079;28;20038;-79
2022/10/15 14:52:29;;;;;;;2.38;1.10;;;;;;;;;;4929574;28;20472;-79
2022/10/15 14:55:06;;;;;;;1.98;0.98;;;;;;;;;;4969166;28;20045;-79